createdAt,value
2018-12-30T00:02:56.740Z,80.54
2018-12-30T00:08:01.455Z,83.13
2018-12-30T00:13:05.818Z,85.24
2018-12-30T00:18:10.541Z,85.76
2018-12-30T00:23:15.231Z,86.57
2018-12-30T00:28:19.616Z,86.26
2018-12-30T00:33:23.958Z,86.14
2018-12-30T00:38:28.345Z,84.25
2018-12-30T00:43:32.706Z,83.55
2018-12-30T00:48:37.429Z,83.83
2018-12-30T00:53:41.840Z,84.39
2018-12-30T00:58:46.301Z,84.68
2018-12-30T01:03:50.660Z,84.83
2018-12-30T01:08:55.086Z,84.00
2018-12-30T01:13:59.554Z,83.27
2018-12-30T01:19:03.934Z,84.75
2018-12-30T01:24:08.273Z,83.85
2018-12-30T01:29:12.705Z,84.40
2018-12-30T01:34:17.080Z,85.90
2018-12-30T01:39:21.451Z,86.43
2018-12-30T01:44:25.831Z,88.48
2018-12-30T01:49:30.917Z,86.73
2018-12-30T01:54:35.681Z,86.95
2018-12-30T01:59:40.071Z,86.95
2018-12-30T02:04:44.839Z,87.77
2018-12-30T02:09:49.173Z,86.88
2018-12-30T02:14:53.647Z,88.16
2018-12-30T02:19:57.998Z,87.66
2018-12-30T02:25:02.553Z,86.95
2018-12-30T02:30:08.243Z,87.28
2018-12-30T02:35:12.689Z,89.00
2018-12-30T02:40:17.070Z,89.26
2018-12-30T02:45:21.519Z,88.81
2018-12-30T02:50:25.883Z,89.90
2018-12-30T02:55:30.256Z,89.15
2018-12-30T03:00:34.620Z,89.49
2018-12-30T03:05:38.988Z,89.84
2018-12-30T03:10:43.339Z,88.99
2018-12-30T03:15:47.967Z,90.79
2018-12-30T03:20:52.351Z,90.44
2018-12-30T03:25:57.098Z,90.76
2018-12-30T03:31:01.480Z,90.00
2018-12-30T03:36:05.825Z,91.00
2018-12-30T03:41:10.175Z,90.86
2018-12-30T03:46:14.515Z,92.29
2018-12-30T03:51:18.884Z,91.62
2018-12-30T03:56:23.386Z,91.72
2018-12-30T04:01:27.743Z,92.02
2018-12-30T04:06:32.185Z,91.53
2018-12-30T04:11:36.574Z,93.09
2018-12-30T04:16:40.959Z,92.94
2018-12-30T04:21:45.269Z,94.45
2018-12-30T04:26:49.678Z,93.39
2018-12-30T04:31:54.034Z,93.79
2018-12-30T04:36:58.414Z,94.48
2018-12-30T04:42:02.762Z,94.41
2018-12-30T04:47:07.202Z,94.73
2018-12-30T04:52:11.580Z,95.52
2018-12-30T04:57:15.925Z,95.71
2018-12-30T05:02:20.277Z,95.82
2018-12-30T05:07:24.803Z,95.71
2018-12-30T05:12:29.209Z,95.92
2018-12-30T05:17:34.182Z,96.04
2018-12-30T05:22:38.612Z,95.77
2018-12-30T05:27:42.965Z,96.04
2018-12-30T05:32:47.395Z,95.35
2018-12-30T05:37:51.742Z,96.10
2018-12-30T05:42:56.109Z,96.17
2018-12-30T05:48:00.536Z,96.43
2018-12-30T05:53:05.553Z,95.80
2018-12-30T05:58:09.936Z,95.40
2018-12-30T06:03:14.336Z,97.56
2018-12-30T06:08:18.704Z,96.93
2018-12-30T06:13:23.159Z,97.40
2018-12-30T06:18:27.494Z,96.51
2018-12-30T06:23:31.830Z,96.01
2018-12-30T06:28:36.218Z,96.66
2018-12-30T06:33:40.643Z,96.64
2018-12-30T06:38:45.005Z,96.65
2018-12-30T06:43:49.340Z,96.43
2018-12-30T06:48:53.704Z,95.29
2018-12-30T06:53:58.118Z,96.13
2018-12-30T06:59:02.500Z,95.20
2018-12-30T07:04:06.894Z,95.21
2018-12-30T07:09:11.259Z,95.41
2018-12-30T07:14:15.598Z,94.90
2018-12-30T07:19:19.954Z,95.81
2018-12-30T07:24:24.321Z,96.36
2018-12-30T07:29:28.673Z,95.83
2018-12-30T07:34:33.054Z,95.76
2018-12-30T07:39:37.444Z,93.84
2018-12-30T07:44:41.826Z,94.93
2018-12-30T07:49:46.193Z,93.92
2018-12-30T07:54:51.409Z,93.79
2018-12-30T07:59:56.096Z,92.20
2018-12-30T08:05:01.397Z,92.33
2018-12-30T08:10:05.936Z,92.51
2018-12-30T08:15:10.333Z,92.14
2018-12-30T08:20:14.843Z,93.50
2018-12-30T08:25:19.260Z,92.84
2018-12-30T08:30:23.667Z,89.27
2018-12-30T08:35:27.979Z,89.76
2018-12-30T08:40:32.317Z,89.99
2018-12-30T08:45:36.693Z,88.32
2018-12-30T08:50:41.041Z,88.16
2018-12-30T08:55:45.430Z,86.19
2018-12-30T09:00:49.786Z,84.26
2018-12-30T09:05:54.125Z,83.83
2018-12-30T09:10:58.463Z,83.17
2018-12-30T09:16:02.843Z,82.10
2018-12-30T09:21:07.243Z,81.67
2018-12-30T09:26:11.639Z,81.18
2018-12-30T09:31:15.984Z,80.57
2018-12-30T09:36:20.418Z,79.44
2018-12-30T09:41:24.764Z,79.26
2018-12-30T09:46:29.153Z,79.36
2018-12-30T09:51:33.775Z,79.98
2018-12-30T09:56:38.111Z,78.33
2018-12-30T10:01:42.479Z,78.19
2018-12-30T10:06:46.857Z,78.06
2018-12-30T10:11:51.261Z,78.27
2018-12-30T10:16:55.628Z,77.98
2018-12-30T10:22:00.024Z,77.97
2018-12-30T10:27:04.376Z,78.62
2018-12-30T10:32:08.831Z,77.57
2018-12-30T10:37:13.203Z,76.05
2018-12-30T10:42:17.577Z,77.16
2018-12-30T10:47:21.950Z,75.50
2018-12-30T10:52:27.375Z,76.39
2018-12-30T11:01:00.724Z,76.67
2018-12-30T11:06:05.135Z,74.29
2018-12-30T11:11:09.541Z,74.22
2018-12-30T11:16:14.045Z,74.58
2018-12-30T11:21:18.525Z,75.24
2018-12-30T11:26:22.989Z,75.24
2018-12-30T11:31:27.353Z,75.10
2018-12-30T11:36:31.727Z,76.42
2018-12-30T11:41:36.129Z,76.39
2018-12-30T11:46:40.491Z,75.88
2018-12-30T11:51:44.859Z,75.52
2018-12-30T11:56:49.218Z,75.49
2018-12-30T12:01:53.590Z,76.08
2018-12-30T12:06:57.978Z,75.55
2018-12-30T12:12:02.313Z,75.39
2018-12-30T12:17:06.689Z,75.77
2018-12-30T12:22:11.066Z,76.43
2018-12-30T12:27:15.414Z,77.61
2018-12-30T12:32:19.827Z,78.65
2018-12-30T12:37:24.193Z,79.19
2018-12-30T12:42:28.580Z,79.81
2018-12-30T12:47:32.988Z,79.69
2018-12-30T12:52:37.351Z,80.13
2018-12-30T12:57:41.711Z,80.03
2018-12-30T13:02:47.098Z,79.93
2018-12-30T13:07:51.536Z,78.77
2018-12-30T13:12:55.960Z,78.63
2018-12-30T13:18:00.912Z,78.82
2018-12-30T13:23:07.236Z,79.13
2018-12-30T13:28:12.144Z,78.79
2018-12-30T13:33:16.915Z,79.59
2018-12-30T13:38:28.234Z,79.41
2018-12-30T13:43:28.823Z,80.59
2018-12-30T13:48:33.261Z,80.26
2018-12-30T13:53:37.806Z,79.53
2018-12-30T13:58:42.250Z,78.97
2018-12-30T14:03:46.583Z,77.81
2018-12-30T14:08:50.935Z,77.47
2018-12-30T14:13:55.304Z,77.06
2018-12-30T14:18:59.695Z,78.82
2018-12-30T14:24:04.067Z,77.86
2018-12-30T14:29:08.420Z,78.02
2018-12-30T14:34:12.852Z,78.96
2018-12-30T14:39:17.219Z,77.86
2018-12-30T14:44:21.758Z,77.13
2018-12-30T14:49:27.103Z,76.99
2018-12-30T14:54:31.491Z,77.29
2018-12-30T14:59:35.850Z,76.94
2018-12-30T15:04:40.472Z,78.05
2018-12-30T15:09:44.807Z,78.12
2018-12-30T15:14:49.230Z,77.63
2018-12-30T15:19:53.581Z,78.26
2018-12-30T15:24:57.934Z,80.48
2018-12-30T15:30:02.305Z,76.97
2018-12-30T15:35:07.728Z,76.74
2018-12-30T15:40:12.180Z,77.51
2018-12-30T15:45:16.532Z,76.64
2018-12-30T15:50:20.925Z,76.38
2018-12-30T15:55:25.322Z,78.21
2018-12-30T16:00:29.658Z,77.96
2018-12-30T16:05:34.068Z,76.07
2018-12-30T16:10:38.399Z,76.62
2018-12-30T16:15:42.747Z,77.08
2018-12-30T16:20:47.159Z,77.55
2018-12-30T16:25:51.526Z,76.97
2018-12-30T16:30:55.861Z,76.94
2018-12-30T16:36:00.220Z,77.54
2018-12-30T16:41:04.667Z,80.34
2018-12-30T16:46:09.070Z,77.87
2018-12-30T16:51:13.453Z,79.32
2018-12-30T16:56:18.108Z,77.80
2018-12-30T17:01:22.558Z,78.12
2018-12-30T17:06:33.860Z,78.49
2018-12-30T17:11:32.985Z,78.55
2018-12-30T17:16:37.360Z,78.98
2018-12-30T17:21:41.792Z,78.15
2018-12-30T17:26:46.231Z,79.79
2018-12-30T17:31:50.666Z,79.90
2018-12-30T17:36:55.039Z,79.23
2018-12-30T17:41:59.399Z,80.63
2018-12-30T17:47:03.752Z,81.14
2018-12-30T17:52:08.081Z,80.56
2018-12-30T17:57:12.428Z,81.38
2018-12-30T18:02:16.955Z,81.44
2018-12-30T18:07:21.290Z,82.97
2018-12-30T18:12:25.651Z,80.86
2018-12-30T18:17:29.990Z,81.67
2018-12-30T18:22:34.353Z,80.35
2018-12-30T18:27:38.704Z,80.90
2018-12-30T18:32:43.109Z,81.07
2018-12-30T18:37:47.915Z,81.26
2018-12-30T18:42:52.277Z,80.74
2018-12-30T18:47:56.615Z,79.82
2018-12-30T18:53:01.078Z,79.38
2018-12-30T18:58:05.418Z,80.77
2018-12-30T19:03:09.823Z,80.45
2018-12-30T19:08:14.190Z,80.43
2018-12-30T19:13:18.559Z,78.89
2018-12-30T19:18:22.929Z,78.49
2018-12-30T19:23:27.474Z,78.79
2018-12-30T19:28:31.782Z,80.04
2018-12-30T19:33:36.141Z,80.14
2018-12-30T19:38:40.536Z,81.21
2018-12-30T19:43:44.946Z,81.48
2018-12-30T19:48:49.312Z,81.48
2018-12-30T19:53:53.760Z,82.37
2018-12-30T19:58:58.207Z,81.37
2018-12-30T20:04:02.659Z,81.37
2018-12-30T20:09:07.523Z,80.86
2018-12-30T20:14:11.841Z,81.09
2018-12-30T20:19:16.217Z,81.26
2018-12-30T20:24:20.561Z,82.21
2018-12-30T20:29:24.939Z,82.44
2018-12-30T20:34:29.378Z,83.99
2018-12-30T20:39:33.740Z,83.46
2018-12-30T20:44:38.147Z,82.12
2018-12-30T20:49:42.525Z,81.42
2018-12-30T20:54:46.898Z,83.07
2018-12-30T20:59:51.284Z,82.36
2018-12-30T21:04:55.665Z,81.70
2018-12-30T21:10:00.021Z,81.37
2018-12-30T21:15:05.215Z,80.37
2018-12-30T21:20:10.556Z,81.89
2018-12-30T21:25:14.940Z,81.75
2018-12-30T21:30:20.282Z,81.17
2018-12-30T21:35:24.645Z,81.77
2018-12-30T21:40:29.021Z,81.35
2018-12-30T21:45:33.435Z,82.35
2018-12-30T21:50:37.814Z,83.12
2018-12-30T21:55:42.220Z,83.33
2018-12-30T22:00:46.664Z,83.94
2018-12-30T22:05:51.089Z,85.08
2018-12-30T22:10:55.454Z,84.58
2018-12-30T22:15:59.796Z,84.19
2018-12-30T22:21:04.144Z,84.88
2018-12-30T22:26:08.650Z,84.96
2018-12-30T22:31:13.012Z,85.25
2018-12-30T22:36:17.364Z,84.56
2018-12-30T22:41:21.753Z,84.71
2018-12-30T22:46:27.316Z,84.13
2018-12-30T22:51:31.668Z,84.81
2018-12-30T22:56:36.011Z,85.30
2018-12-30T23:01:40.357Z,86.89
2018-12-30T23:06:45.867Z,86.40
2018-12-30T23:11:50.328Z,85.66
2018-12-30T23:16:54.788Z,85.62
2018-12-30T23:21:59.285Z,86.63
2018-12-30T23:27:03.665Z,87.22
2018-12-30T23:32:08.052Z,87.34
2018-12-30T23:37:12.442Z,86.24
2018-12-30T23:42:16.858Z,86.33
2018-12-30T23:47:21.231Z,86.64
2018-12-30T23:52:25.578Z,86.68
2018-12-30T23:57:29.943Z,86.23
